Time;durP1;ratioP1;P1;durP2;ratioP2;P2;SDS_P1;SDS_P2;PMS_P1;PMS_P2;Temp;Humidity;BMP_temperature;BMP_pressure;BME280_temperature;BME280_humidity;BME280_pressure;Samples;Min_cycle;Max_cycle;Signal;HPM_P1;HPM_P2
2022/01/04 00:00:16;;;;;;;;;;;;;;;7.05;100.00;100146.13;5021954;28;20008;-74
2022/01/04 00:02:41;;;;;;;;;;;;;;;6.99;100.00;100144.63;5025867;28;19921;-73
2022/01/04 00:05:08;;;;;;;;;;;;;;;7.06;100.00;100137.34;5020676;28;19982;-74
2022/01/04 00:07:33;;;;;;;;;;;;;;;7.06;100.00;100129.50;5021927;28;19984;-72
2022/01/04 00:09:59;;;;;;;;;;;;;;;7.05;100.00;100133.91;5020985;28;19921;-74
2022/01/04 00:15:06;;;;;;;;;;;;;;;7.03;100.00;100122.66;5024202;28;20272;-73
2022/01/04 00:17:31;;;;;;;;;;;;;;;7.04;100.00;100120.91;5006740;28;19976;-72
2022/01/04 00:19:56;;;;;;;;;;;;;;;7.10;100.00;100118.88;5018533;28;19925;-72
2022/01/04 00:22:21;;;;;;;;;;;;;;;7.20;100.00;100106.25;5017455;28;19927;-73
2022/01/04 00:24:47;;;;;;;;;;;;;;;7.25;100.00;100106.91;5021474;28;19925;-71
2022/01/04 00:27:12;;;;;;;;;;;;;;;7.31;100.00;100099.69;5023549;28;19941;-73
2022/01/04 00:29:38;;;;;;;;;;;;;;;7.33;100.00;100085.63;5025542;28;19925;-73
2022/01/04 00:32:03;;;;;;;;;;;;;;;7.35;100.00;100073.34;5006875;28;20397;-72
2022/01/04 00:34:28;;;;;;;;;;;;;;;7.35;100.00;100069.91;5030751;28;19925;-73
2022/01/04 00:36:54;;;;;;;;;;;;;;;7.36;100.00;100068.97;5023504;28;20020;-73
2022/01/04 00:39:19;;;;;;;;;;;;;;;7.45;100.00;100072.91;5027351;28;20266;-74
2022/01/04 00:41:44;;;;;;;;;;;;;;;7.41;100.00;100062.63;5015606;28;20044;-73
2022/01/04 00:44:09;;;;;;;;;;;;;;;7.41;100.00;100062.63;5025195;28;19960;-74
2022/01/04 00:46:35;;;;;;;;;;;;;;;7.41;100.00;100056.53;5031151;28;19924;-75
2022/01/04 00:51:41;;;;;;;;;;;;;;;7.46;100.00;100049.34;5032395;28;20570;-74
2022/01/04 00:54:07;;;;;;;;;;;;;;;7.45;100.00;100052.00;5024563;28;19956;-73
2022/01/04 00:56:33;;;;;;;;;;;;;;;7.46;100.00;100038.88;5029099;28;19968;-71
2022/01/04 00:58:58;;;;;;;;;;;;;;;7.47;100.00;100042.34;5030490;28;20332;-72
2022/01/04 01:01:23;;;;;;;;;;;;;;;7.46;100.00;100038.03;5038940;28;19921;-73
2022/01/04 01:03:49;;;;;;;;;;;;;;;7.45;100.00;100042.41;5011287;28;20354;-77
2022/01/04 01:06:14;;;;;;;;;;;;;;;7.48;100.00;100046.66;5029128;28;19918;-76
2022/01/04 01:08:40;;;;;;;;;;;;;;;7.43;100.00;100039.03;5032795;28;19917;-75
2022/01/04 01:11:07;;;;;;;;;;;;;;;7.46;100.00;100036.28;5046081;28;20012;-77
2022/01/04 01:13:33;;;;;;;;;;;;;;;7.47;100.00;100030.13;5036939;28;20438;-74
2022/01/04 01:15:58;;;;;;;;;;;;;;;7.48;100.00;100018.75;5032478;28;19929;-77
2022/01/04 01:18:23;;;;;;;;;;;;;;;7.49;100.00;100017.84;5029045;28;19979;-77
2022/01/04 01:20:49;;;;;;;;;;;;;;;7.47;100.00;100017.06;5032620;28;19917;-75
2022/01/04 01:23:14;;;;;;;;;;;;;;;7.45;100.00;100016.28;5043537;28;20290;-76
2022/01/04 01:25:40;;;;;;;;;;;;;;;7.45;100.00;100015.41;5021641;28;20615;-76
2022/01/04 01:28:05;;;;;;;;;;;;;;;7.44;100.00;100019.81;5038430;28;19917;-74
2022/01/04 01:30:33;;;;;;;;;;;;;;;7.42;100.00;100012.06;5039489;28;19917;-77
2022/01/04 01:32:59;;;;;;;;;;;;;;;7.43;100.00;100007.66;5024175;28;20681;-78
2022/01/04 01:35:24;;;;;;;;;;;;;;;7.41;100.00;100001.66;5020309;28;19923;-77
2022/01/04 01:37:49;;;;;;;;;;;;;;;7.42;100.00;100005.97;5030398;28;19918;-77
2022/01/04 01:40:15;;;;;;;;;;;;;;;7.39;100.00;100006.97;5027841;28;19921;-78
2022/01/04 01:42:40;;;;;;;;;;;;;;;7.38;100.00;100001.81;5024278;28;19924;-78
2022/01/04 01:45:07;;;;;;;;;;;;;;;7.35;100.00;100000.19;5018893;28;20338;-82
2022/01/04 01:47:32;;;;;;;;;;;;;;;7.35;100.00;100007.19;5040125;28;20437;-77
2022/01/04 01:49:57;;;;;;;;;;;;;;;7.33;100.00;99983.72;5023272;28;19921;-76
2022/01/04 01:52:23;;;;;;;;;;;;;;;7.32;100.00;99978.56;5022607;28;19918;-76
2022/01/04 01:54:48;;;;;;;;;;;;;;;7.33;100.00;99986.34;5022175;28;20499;-77
2022/01/04 01:57:14;;;;;;;;;;;;;;;7.36;100.00;99972.28;5026387;28;19922;-75
2022/01/04 01:59:39;;;;;;;;;;;;;;;7.39;100.00;99970.38;5022560;28;20365;-75
2022/01/04 02:02:04;;;;;;;;;;;;;;;7.40;100.00;99960.75;5027244;28;19944;-76
2022/01/04 02:04:30;;;;;;;;;;;;;;;7.41;100.00;99970.31;5019354;28;20025;-76
2022/01/04 02:06:55;;;;;;;;;;;;;;;7.46;100.00;99962.22;5021175;28;20406;-76
2022/01/04 02:09:21;;;;;;;;;;;;;;;7.43;100.00;99953.66;5017755;28;19966;-76
2022/01/04 02:11:46;;;;;;;;;;;;;;;7.43;100.00;99952.78;5021293;28;19957;-77
2022/01/04 02:14:12;;;;;;;;;;;;;;;7.46;100.00;99946.56;5024761;28;20661;-76
2022/01/04 02:16:37;;;;;;;;;;;;;;;7.46;100.00;99944.81;5016136;28;20370;-77
2022/01/04 02:19:04;;;;;;;;;;;;;;;7.47;100.00;99935.19;5018589;28;19917;-76
2022/01/04 02:21:44;;;;;;;;;;;;;;;7.46;100.00;99929.13;5016195;28;20004;-77
2022/01/04 02:24:09;;;;;;;;;;;;;;;7.50;100.00;99935.88;5024068;28;19921;-76
2022/01/04 02:26:35;;;;;;;;;;;;;;;7.45;100.00;99930.03;5025857;28;19948;-77
2022/01/04 02:29:01;;;;;;;;;;;;;;;7.43;100.00;99921.44;5030139;28;19921;-74
2022/01/04 02:31:27;;;;;;;;;;;;;;;7.45;100.00;99927.44;5030704;28;19940;-77
2022/01/04 02:33:52;;;;;;;;;;;;;;;7.41;100.00;99921.50;5031469;28;20366;-77
2022/01/04 02:36:17;;;;;;;;;;;;;;;7.41;100.00;99911.06;5004715;28;20028;-76
2022/01/04 02:38:43;;;;;;;;;;;;;;;7.34;100.00;99914.03;5024545;28;19918;-77
2022/01/04 02:41:08;;;;;;;;;;;;;;;7.33;100.00;99912.34;5029897;28;20353;-76
2022/01/04 02:43:33;;;;;;;;;;;;;;;7.25;100.00;99904.88;5025442;28;19921;-76
2022/01/04 02:45:58;;;;;;;;;;;;;;;7.24;100.00;99903.16;5029434;28;19932;-76
2022/01/04 02:48:24;;;;;;;;;;;;;;;7.18;100.00;99896.47;4995549;28;19926;-76
2022/01/04 02:50:50;;;;;;;;;;;;;;;7.12;100.00;99883.72;5015110;28;19917;-74
2022/01/04 02:53:16;;;;;;;;;;;;;;;7.17;100.00;99886.09;5035591;28;20281;-76
2022/01/04 02:55:41;;;;;;;;;;;;;;;7.17;100.00;99886.09;5046536;28;20007;-76
2022/01/04 02:58:06;;;;;;;;;;;;;;;7.14;100.00;99881.88;5030622;28;20173;-73
2022/01/04 03:00:32;;;;;;;;;;;;;;;7.15;100.00;99888.81;5026243;28;20341;-72
2022/01/04 03:02:57;;;;;;;;;;;;;;;7.18;100.00;99888.63;5041058;28;19929;-75
2022/01/04 03:05:23;;;;;;;;;;;;;;;7.17;100.00;99876.50;5035138;28;19927;-74
2022/01/04 03:07:48;;;;;;;;;;;;;;;7.16;100.00;99879.19;5030802;28;20277;-73
2022/01/04 03:10:13;;;;;;;;;;;;;;;7.16;100.00;99876.56;5031071;28;19924;-74
2022/01/04 03:12:42;;;;;;;;;;;;;;;7.17;100.00;99866.03;5027202;28;19928;-76
2022/01/04 03:15:08;;;;;;;;;;;;;;;7.18;100.00;99864.28;5029148;28;19959;-74
2022/01/04 03:17:33;;;;;;;;;;;;;;;7.14;100.00;99847.94;5039609;28;19949;-75
2022/01/04 03:19:58;;;;;;;;;;;;;;;7.14;100.00;99850.53;5028435;28;19923;-75
2022/01/04 03:22:23;;;;;;;;;;;;;;;7.15;100.00;99852.22;5026954;28;19917;-75
2022/01/04 03:24:49;;;;;;;;;;;;;;;7.17;100.00;99839.09;5024330;28;19917;-76
2022/01/04 03:27:14;;;;;;;;;;;;;;;7.14;100.00;99834.00;5024743;28;19925;-74
2022/01/04 03:29:39;;;;;;;;;;;;;;;7.12;100.00;99821.03;5033901;28;20333;-75
2022/01/04 03:32:05;;;;;;;;;;;;;;;7.11;100.00;99817.56;5025252;28;19928;-75
2022/01/04 03:34:31;;;;;;;;;;;;;;;7.13;100.00;99817.50;5046107;28;19928;-75
2022/01/04 03:36:56;;;;;;;;;;;;;;;7.11;100.00;99816.72;5030489;28;19920;-76
2022/01/04 03:39:21;;;;;;;;;;;;;;;7.14;100.00;99815.72;5028435;28;20439;-76
2022/01/04 03:41:47;;;;;;;;;;;;;;;7.14;100.00;99802.66;5019271;28;19926;-74
2022/01/04 03:44:18;;;;;;;;;;;;;;;7.21;100.00;99791.00;5024674;28;20390;-75
2022/01/04 03:46:43;;;;;;;;;;;;;;;7.18;100.00;99797.22;5023934;28;20047;-75
2022/01/04 03:49:09;;;;;;;;;;;;;;;7.16;100.00;99795.59;5032785;28;19960;-75
2022/01/04 03:51:34;;;;;;;;;;;;;;;7.15;100.00;99793.91;5035642;28;19917;-76
2022/01/04 03:53:59;;;;;;;;;;;;;;;7.16;100.00;99788.63;5030728;28;19917;-75
2022/01/04 03:56:25;;;;;;;;;;;;;;;7.13;100.00;99780.94;5029001;28;20128;-73
2022/01/04 03:58:50;;;;;;;;;;;;;;;7.15;100.00;99766.03;5022939;28;20353;-74
2022/01/04 04:01:15;;;;;;;;;;;;;;;7.12;100.00;99760.97;5022952;28;20290;-71
2022/01/04 04:03:40;;;;;;;;;;;;;;;7.10;100.00;99754.97;5017750;28;20485;-70
2022/01/04 04:06:06;;;;;;;;;;;;;;;7.05;100.00;99751.75;5023468;28;19956;-71
2022/01/04 04:08:31;;;;;;;;;;;;;;;7.09;100.00;99754.13;5022614;28;19929;-72
2022/01/04 04:10:56;;;;;;;;;;;;;;;7.11;100.00;99762.72;5020471;28;20525;-71
2022/01/04 04:13:22;;;;;;;;;;;;;;;7.14;100.00;99753.91;5013199;28;19921;-73
2022/01/04 04:15:47;;;;;;;;;;;;;;;7.18;100.00;99752.78;5011248;28;19925;-72
2022/01/04 04:18:13;;;;;;;;;;;;;;;7.19;100.00;99759.72;5033300;28;20470;-72
2022/01/04 04:20:39;;;;;;;;;;;;;;;7.16;100.00;99757.28;5014859;28;19920;-70
2022/01/04 04:23:05;;;;;;;;;;;;;;;7.14;100.00;99772.19;5017599;28;19925;-72
2022/01/04 04:25:31;;;;;;;;;;;;;;;7.12;100.00;99763.56;5021753;28;19917;-72
2022/01/04 04:27:56;;;;;;;;;;;;;;;7.13;100.00;99760.03;5018985;28;19917;-71
2022/01/04 04:30:21;;;;;;;;;;;;;;;7.12;100.00;99750.50;5034901;28;19924;-71
2022/01/04 04:32:47;;;;;;;;;;;;;;;7.09;100.00;99743.69;5019288;28;19918;-71
2022/01/04 04:35:12;;;;;;;;;;;;;;;7.13;100.00;99741.75;5015147;28;20063;-73
2022/01/04 04:37:38;;;;;;;;;;;;;;;7.10;100.00;99740.16;5019566;28;19972;-73
2022/01/04 04:40:04;;;;;;;;;;;;;;;7.09;100.00;99737.59;5010832;28;19926;-73
2022/01/04 04:42:29;;;;;;;;;;;;;;;7.10;100.00;99729.69;5015848;28;20282;-73
2022/01/04 04:44:54;;;;;;;;;;;;;;;7.09;100.00;99727.16;4995839;28;19933;-76
2022/01/04 04:47:20;;;;;;;;;;;;;;;7.07;100.00;99716.78;5019377;28;19925;-76
2022/01/04 04:49:45;;;;;;;;;;;;;;;7.06;100.00;99714.22;5021122;28;20517;-73
2022/01/04 04:52:10;;;;;;;;;;;;;;;7.07;100.00;99716.78;5019355;28;20363;-71
2022/01/04 04:54:35;;;;;;;;;;;;;;;7.07;100.00;99724.63;5021321;28;19917;-74
2022/01/04 04:57:01;;;;;;;;;;;;;;;7.14;100.00;99711.25;5029309;28;19917;-75
2022/01/04 04:59:26;;;;;;;;;;;;;;;7.15;100.00;99703.34;5030354;28;19921;-75
2022/01/04 05:01:51;;;;;;;;;;;;;;;7.19;100.00;99706.63;5025511;28;19920;-74
2022/01/04 05:04:18;;;;;;;;;;;;;;;7.20;100.00;99710.94;5041708;28;19933;-71
2022/01/04 05:06:43;;;;;;;;;;;;;;;7.20;100.00;99714.38;5001556;28;20673;-72
2022/01/04 05:09:09;;;;;;;;;;;;;;;7.20;100.00;99708.34;5036991;28;20269;-73
2022/01/04 05:11:34;;;;;;;;;;;;;;;7.20;100.00;99703.94;5001912;28;20095;-72
2022/01/04 05:13:59;;;;;;;;;;;;;;;7.18;100.00;99690.09;5007180;28;19921;-73
2022/01/04 05:16:25;;;;;;;;;;;;;;;7.17;100.00;99685.81;5035677;28;19917;-71
2022/01/04 05:18:50;;;;;;;;;;;;;;;7.16;100.00;99678.91;5009566;28;19928;-70
2022/01/04 05:21:15;;;;;;;;;;;;;;;7.14;100.00;99682.50;5013080;28;20385;-74
2022/01/04 05:23:40;;;;;;;;;;;;;;;7.12;100.00;99680.81;5020270;28;19925;-75
2022/01/04 05:26:06;;;;;;;;;;;;;;;7.09;100.00;99683.59;5017548;28;19996;-74
2022/01/04 05:28:31;;;;;;;;;;;;;;;7.13;100.00;99671.22;5014665;28;19956;-72
2022/01/04 05:30:56;;;;;;;;;;;;;;;7.12;100.00;99674.75;5025032;28;19929;-75
2022/01/04 05:33:22;;;;;;;;;;;;;;;7.11;100.00;99683.53;5011564;28;20383;-74
2022/01/04 05:35:48;;;;;;;;;;;;;;;7.12;100.00;99677.38;5008736;28;20386;-74
2022/01/04 05:38:14;;;;;;;;;;;;;;;7.16;100.00;99673.69;5021338;28;20390;-74
2022/01/04 05:40:39;;;;;;;;;;;;;;;7.12;100.00;99666.94;5027127;28;20020;-71
2022/01/04 05:43:05;;;;;;;;;;;;;;;7.09;100.00;99667.94;5023863;28;19927;-74
2022/01/04 05:45:31;;;;;;;;;;;;;;;7.09;100.00;99667.06;5017232;28;19929;-73
2022/01/04 05:47:56;;;;;;;;;;;;;;;7.06;100.00;99668.09;5015647;28;20016;-75
2022/01/04 05:50:22;;;;;;;;;;;;;;;7.05;100.00;99660.34;5018697;28;20343;-76
2022/01/04 05:52:47;;;;;;;;;;;;;;;7.02;100.00;99653.47;5019499;28;19928;-74
2022/01/04 05:55:12;;;;;;;;;;;;;;;7.02;100.00;99650.03;5018491;28;19933;-73
2022/01/04 05:57:38;;;;;;;;;;;;;;;7.03;100.00;99651.72;5018821;28;19979;-74
2022/01/04 06:00:04;;;;;;;;;;;;;;;7.06;100.00;99664.63;5023753;28;19924;-73
2022/01/04 06:02:29;;;;;;;;;;;;;;;7.09;100.00;99667.94;5018659;28;20035;-73
2022/01/04 06:04:54;;;;;;;;;;;;;;;7.07;100.00;99661.94;5014688;28;20016;-72
2022/01/04 06:07:20;;;;;;;;;;;;;;;7.10;100.00;99663.53;5026490;28;19925;-72
2022/01/04 06:09:48;;;;;;;;;;;;;;;7.10;100.00;99655.72;5025110;28;19971;-72
2022/01/04 06:14:56;;;;;;;;;;;;;;;7.12;100.00;99651.25;5022305;28;19929;-73
2022/01/04 06:17:28;;;;;;;;;;;;;;;7.14;100.00;99645.94;5020120;28;19928;-71
2022/01/04 06:19:55;;;;;;;;;;;;;;;7.12;100.00;99643.41;5012562;28;20446;-72
2022/01/04 06:22:21;;;;;;;;;;;;;;;7.12;100.00;99648.66;5026167;28;19934;-74
2022/01/04 06:24:46;;;;;;;;;;;;;;;7.11;100.00;99649.56;5013682;28;20433;-73
2022/01/04 06:27:11;;;;;;;;;;;;;;;7.14;100.00;99645.94;5022339;28;19918;-74
2022/01/04 06:29:38;;;;;;;;;;;;;;;7.10;100.00;99643.50;5022338;28;20012;-74
2022/01/04 06:32:04;;;;;;;;;;;;;;;7.11;100.00;99639.13;5011095;28;19918;-74
2022/01/04 06:34:29;;;;;;;;;;;;;;;7.13;100.00;99629.44;5014054;28;20004;-75
2022/01/04 06:36:54;;;;;;;;;;;;;;;7.12;100.00;99630.38;5018126;28;19924;-75
2022/01/04 06:39:20;;;;;;;;;;;;;;;7.14;100.00;99625.03;5019995;28;19925;-73
2022/01/04 06:41:45;;;;;;;;;;;;;;;7.15;100.00;99630.22;5024819;28;19953;-74
2022/01/04 06:44:11;;;;;;;;;;;;;;;7.13;100.00;99626.81;5026739;28;19925;-74
2022/01/04 06:46:38;;;;;;;;;;;;;;;7.15;100.00;99616.28;5013655;28;20582;-73
2022/01/04 06:49:03;;;;;;;;;;;;;;;7.14;100.00;99622.44;5024293;28;20325;-75
2022/01/04 06:51:29;;;;;;;;;;;;;;;7.13;100.00;99613.78;5030253;28;19917;-75
2022/01/04 06:53:54;;;;;;;;;;;;;;;7.09;100.00;99601.78;5045113;28;19956;-74
2022/01/04 06:56:19;;;;;;;;;;;;;;;7.10;100.00;99606.09;5026430;28;19917;-73
2022/01/04 06:58:44;;;;;;;;;;;;;;;7.09;100.00;99602.66;5025043;28;19948;-74
2022/01/04 07:01:10;;;;;;;;;;;;;;;7.07;100.00;99598.41;5021378;28;20307;-72
2022/01/04 07:03:35;;;;;;;;;;;;;;;7.06;100.00;99596.72;5015371;28;19976;-72
2022/01/04 07:06:00;;;;;;;;;;;;;;;7.05;100.00;99600.28;5026106;28;20306;-71
2022/01/04 07:08:26;;;;;;;;;;;;;;;7.05;100.00;99602.88;5020844;28;19921;-72
2022/01/04 07:10:51;;;;;;;;;;;;;;;7.04;100.00;99603.81;5015875;28;19981;-71
2022/01/04 07:13:16;;;;;;;;;;;;;;;7.05;100.00;99603.72;5025562;28;20557;-74
2022/01/04 07:15:42;;;;;;;;;;;;;;;7.08;100.00;99600.09;5018640;28;19921;-74
2022/01/04 07:18:07;;;;;;;;;;;;;;;7.09;100.00;99592.19;5014025;28;19921;-74
2022/01/04 07:20:32;;;;;;;;;;;;;;;7.08;100.00;99592.25;5024790;28;19944;-74
2022/01/04 07:22:58;;;;;;;;;;;;;;;7.06;100.00;99586.25;5002061;28;20020;-74
2022/01/04 07:25:24;;;;;;;;;;;;;;;7.05;100.00;99593.28;5013512;28;19925;-74
2022/01/04 07:27:49;;;;;;;;;;;;;;;7.04;100.00;99591.56;5022473;28;19995;-74
2022/01/04 07:30:14;;;;;;;;;;;;;;;7.05;100.00;99589.81;5019653;28;20356;-70
2022/01/04 07:32:40;;;;;;;;;;;;;;;7.07;100.00;99596.66;5027077;28;19918;-72
2022/01/04 07:35:05;;;;;;;;;;;;;;;7.06;100.00;99588.88;5024962;28;19927;-72
2022/01/04 07:37:30;;;;;;;;;;;;;;;7.04;100.00;99590.75;5014732;28;19948;-71
2022/01/04 07:39:56;;;;;;;;;;;;;;;7.06;100.00;99584.50;5020637;28;20020;-71
2022/01/04 07:42:21;;;;;;;;;;;;;;;7.04;100.00;99588.97;5021231;28;20283;-70
2022/01/04 07:44:46;;;;;;;;;;;;;;;7.03;100.00;99589.06;5026004;28;20000;-71
2022/01/04 07:47:12;;;;;;;;;;;;;;;7.05;100.00;99593.28;5022838;28;20018;-76
2022/01/04 07:49:37;;;;;;;;;;;;;;;7.06;100.00;99586.25;5026616;28;19963;-74
2022/01/04 07:52:02;;;;;;;;;;;;;;;7.07;100.00;99590.56;5020448;28;19957;-72
2022/01/04 07:54:28;;;;;;;;;;;;;;;7.07;100.00;99588.81;5024641;28;19917;-73
2022/01/04 07:56:53;;;;;;;;;;;;;;;7.06;100.00;99589.72;5022939;28;19975;-72
2022/01/04 07:59:19;;;;;;;;;;;;;;;7.09;100.00;99581.75;5041247;28;19923;-73
2022/01/04 08:01:44;;;;;;;;;;;;;;;7.06;100.00;99589.72;5006900;28;19918;-73
2022/01/04 08:04:10;;;;;;;;;;;;;;;7.06;100.00;99596.72;5026486;28;19956;-72
2022/01/04 08:06:35;;;;;;;;;;;;;;;7.03;100.00;99591.66;5018488;28;20539;-73
2022/01/04 08:09:00;;;;;;;;;;;;;;;7.01;100.00;99593.50;5016187;28;20378;-73
2022/01/04 08:11:26;;;;;;;;;;;;;;;7.02;100.00;99584.75;5030915;28;19975;-74
2022/01/04 08:13:52;;;;;;;;;;;;;;;6.97;100.00;99591.06;5012040;28;20378;-73
2022/01/04 08:16:17;;;;;;;;;;;;;;;6.90;100.00;99589.69;5022471;28;20016;-74
2022/01/04 08:18:43;;;;;;;;;;;;;;;6.90;100.00;99591.44;5022527;28;19928;-73
2022/01/04 08:21:08;;;;;;;;;;;;;;;6.91;100.00;99604.44;5028946;28;19925;-73
2022/01/04 08:23:33;;;;;;;;;;;;;;;6.88;100.00;99591.53;5039816;28;19921;-73
2022/01/04 08:25:59;;;;;;;;;;;;;;;6.87;100.00;99602.91;5040479;28;19967;-73
2022/01/04 08:28:24;;;;;;;;;;;;;;;6.91;100.00;99608.81;5021487;28;20328;-74
2022/01/04 08:30:50;;;;;;;;;;;;;;;6.95;100.00;99611.16;5016743;28;20446;-75
2022/01/04 08:33:15;;;;;;;;;;;;;;;6.93;100.00;99614.78;5026546;28;19928;-75
2022/01/04 08:35:40;;;;;;;;;;;;;;;6.95;100.00;99613.78;5026120;28;19921;-76
2022/01/04 08:38:06;;;;;;;;;;;;;;;6.97;100.00;99605.88;5020516;28;20604;-75
2022/01/04 08:40:31;;;;;;;;;;;;;;;7.00;100.00;99615.31;5027705;28;19928;-75
2022/01/04 08:42:57;;;;;;;;;;;;;;;7.03;100.00;99610.78;5015937;28;20353;-75
2022/01/04 08:45:24;;;;;;;;;;;;;;;7.03;100.00;99617.78;5023046;28;19937;-75
2022/01/04 08:47:51;;;;;;;;;;;;;;;7.03;99.93;99610.78;5027561;28;19921;-76
2022/01/04 08:50:17;;;;;;;;;;;;;;;7.04;99.88;99609.03;5034432;28;20333;-76
2022/01/04 08:52:42;;;;;;;;;;;;;;;7.06;99.41;99620.22;5018503;28;19924;-75
2022/01/04 08:55:08;;;;;;;;;;;;;;;7.05;99.19;99624.59;5025980;28;20024;-75
2022/01/04 08:57:34;;;;;;;;;;;;;;;7.05;99.12;99629.00;5016266;28;19917;-74
2022/01/04 08:59:59;;;;;;;;;;;;;;;7.02;99.60;99622.16;5021549;28;19920;-75
2022/01/04 09:02:24;;;;;;;;;;;;;;;6.99;99.98;99624.06;5027275;28;19928;-72
2022/01/04 09:04:50;;;;;;;;;;;;;;;7.00;99.32;99633.59;5021016;28;19926;-76
2022/01/04 09:07:16;;;;;;;;;;;;;;;7.04;99.26;99633.38;5025962;28;19918;-75
2022/01/04 09:09:41;;;;;;;;;;;;;;;7.04;98.77;99627.31;5031540;28;19963;-75
2022/01/04 09:12:07;;;;;;;;;;;;;;;7.04;98.86;99622.91;5018075;28;19917;-76
2022/01/04 09:19:53;;;;;;;;;;;;;;;7.11;97.79;99631.28;4998834;28;19975;-75
2022/01/04 09:22:19;;;;;;;;;;;;;;;7.13;97.22;99650.34;5023842;28;19960;-76
2022/01/04 09:24:44;;;;;;;;;;;;;;;7.17;95.89;99643.19;5027461;28;19925;-77
2022/01/04 09:27:10;;;;;;;;;;;;;;;7.06;94.88;99643.72;5041494;28;19917;-77
2022/01/04 09:29:35;;;;;;;;;;;;;;;7.02;94.89;99637.81;5022150;28;20323;-76
2022/01/04 09:32:02;;;;;;;;;;;;;;;6.97;96.18;99645.06;5026567;28;19917;-74
2022/01/04 09:34:28;;;;;;;;;;;;;;;6.95;96.67;99641.69;5021981;28;19997;-75
2022/01/04 09:36:53;;;;;;;;;;;;;;;6.95;97.09;99652.94;5014244;28;20024;-76
2022/01/04 09:42:01;;;;;;;;;;;;;;;6.91;97.22;99661.88;5018476;28;19924;-73
2022/01/04 09:44:27;;;;;;;;;;;;;;;6.92;96.73;99660.97;5022279;28;19925;-71
2022/01/04 09:46:53;;;;;;;;;;;;;;;6.91;95.94;99654.06;5031926;28;19917;-73
2022/01/04 09:49:18;;;;;;;;;;;;;;;7.00;95.93;99654.50;5025654;28;20593;-72
2022/01/04 09:51:44;;;;;;;;;;;;;;;6.96;95.58;99649.41;5024890;28;19917;-72
2022/01/04 09:54:10;;;;;;;;;;;;;;;6.98;95.43;99659.81;5029663;28;20071;-72
2022/01/04 09:56:35;;;;;;;;;;;;;;;6.85;95.83;99656.94;5026792;28;19921;-73
2022/01/04 09:59:00;;;;;;;;;;;;;;;6.70;96.26;99670.78;5025371;28;19952;-73
2022/01/04 10:01:45;;;;;;;;;;;;;;;6.68;96.19;99664.81;5028685;28;19921;-72
2022/01/04 10:04:11;;;;;;;;;;;;;;;6.59;96.58;99674.78;5007017;28;19922;-73
2022/01/04 10:06:39;;;;;;;;;;;;;;;6.63;96.88;99668.47;5026497;28;20576;-72
2022/01/04 10:09:08;;;;;;;;;;;;;;;6.62;96.63;99673.78;5023696;28;20264;-72
2022/01/04 10:11:50;;;;;;;;;;;;;;;6.51;97.14;99676.91;5010017;28;19925;-73
2022/01/04 10:14:31;;;;;;;;;;;;;;;6.53;97.00;99682.88;5025004;28;19925;-73
2022/01/04 10:16:58;;;;;;;;;;;;;;;6.46;96.58;99681.50;5023963;28;19929;-72
2022/01/04 10:19:38;;;;;;;;;;;;;;;6.43;97.05;99690.34;5023048;28;19925;-73
2022/01/04 10:22:19;;;;;;;;;;;;;;;6.47;97.14;99699.69;5040275;28;20389;-73
2022/01/04 10:24:45;;;;;;;;;;;;;;;6.56;96.06;99693.19;5022092;28;19921;-72
2022/01/04 10:27:26;;;;;;;;;;;;;;;6.42;95.96;99691.25;5026744;28;19928;-73
2022/01/04 10:30:07;;;;;;;;;;;;;;;6.31;95.98;99688.31;5029775;28;19963;-73
2022/01/04 10:32:41;;;;;;;;;;;;;;;6.17;94.93;99675.94;5024480;28;19921;-73
2022/01/04 10:35:07;;;;;;;;;;;;;;;6.12;95.23;99677.91;5023597;28;19921;-73
2022/01/04 10:37:32;;;;;;;;;;;;;;;5.93;95.61;99678.75;5023294;28;20012;-73
2022/01/04 10:40:13;;;;;;;;;;;;;;;6.05;95.89;99672.13;5024118;28;19924;-72
2022/01/04 10:42:38;;;;;;;;;;;;;;;5.99;94.72;99669.78;5021734;28;20359;-72
2022/01/04 10:45:19;;;;;;;;;;;;;;;6.12;95.55;99680.50;5023293;28;20008;-73
2022/01/04 10:47:44;;;;;;;;;;;;;;;6.32;94.16;99675.19;5027224;28;20012;-73
2022/01/04 10:50:10;;;;;;;;;;;;;;;6.27;94.66;99677.19;5022609;28;20008;-73
2022/01/04 10:52:35;;;;;;;;;;;;;;;6.30;94.94;99676.19;5021767;28;19921;-73
2022/01/04 10:55:16;;;;;;;;;;;;;;;6.41;94.90;99675.66;5019373;28;20262;-73
2022/01/04 10:57:41;;;;;;;;;;;;;;;6.28;93.69;99672.81;5019791;28;19925;-76
2022/01/04 11:00:22;;;;;;;;;;;;;;;6.16;93.99;99674.25;5031526;28;19927;-77
2022/01/04 11:02:47;;;;;;;;;;;;;;;6.18;93.82;99672.38;5028902;28;19917;-77
2022/01/04 11:05:13;;;;;;;;;;;;;;;6.28;93.37;99684.09;5029766;28;19930;-76
2022/01/04 11:07:53;;;;;;;;;;;;;;;6.23;93.20;99686.06;5023176;28;20484;-75
2022/01/04 11:10:19;;;;;;;;;;;;;;;6.20;93.79;99696.63;5027491;28;19921;-77
2022/01/04 11:12:44;;;;;;;;;;;;;;;6.06;93.45;99701.66;5020715;28;19918;-77
2022/01/04 11:15:10;;;;;;;;;;;;;;;5.92;93.64;99705.72;5026568;28;20387;-76
2022/01/04 11:17:35;;;;;;;;;;;;;;;5.88;91.86;99701.56;5022137;28;20306;-75
2022/01/04 11:20:01;;;;;;;;;;;;;;;5.72;90.83;99709.22;5024332;28;20015;-75
2022/01/04 11:22:27;;;;;;;;;;;;;;;5.70;92.02;99718.88;5020889;28;19929;-76
2022/01/04 11:24:52;;;;;;;;;;;;;;;5.64;91.88;99720.00;5019151;28;20014;-76
2022/01/04 11:27:18;;;;;;;;;;;;;;;5.71;91.94;99731.84;5021104;28;20577;-76
2022/01/04 11:29:45;;;;;;;;;;;;;;;5.80;91.42;99729.75;5016500;28;19971;-76
2022/01/04 11:32:14;;;;;;;;;;;;;;;5.70;90.34;99730.16;5026599;28;19960;-75
2022/01/04 11:34:55;;;;;;;;;;;;;;;5.77;91.42;99738.56;5016579;28;19917;-75
2022/01/04 11:37:21;;;;;;;;;;;;;;;5.63;91.61;99741.75;5015625;28;19970;-77
2022/01/04 11:39:47;;;;;;;;;;;;;;;5.65;89.12;99739.09;5017646;28;20346;-77
2022/01/04 11:45:13;;;;;;;;;;;;;;;5.46;87.50;99737.28;4942144;28;1981200;-76
2022/01/04 11:47:45;;;;;;;;;;;;;;;5.42;89.07;99748.75;5028915;28;19932;-76
2022/01/04 11:50:11;;;;;;;;;;;;;;;5.47;87.36;99733.75;5020461;28;20450;-76
2022/01/04 11:52:38;;;;;;;;;;;;;;;5.49;87.71;99741.53;5025677;28;19921;-75
2022/01/04 11:55:21;;;;;;;;;;;;;;;5.53;86.50;99738.72;5019102;28;19964;-75
2022/01/04 11:57:46;;;;;;;;;;;;;;;5.53;86.60;99753.47;5026094;28;20030;-76
2022/01/04 12:00:22;;;;;;;;;;;;;;;5.67;85.59;99747.69;5026668;28;19921;-76
2022/01/04 12:03:00;;;;;;;;;;;;;;;5.72;86.17;99751.78;5023520;28;19936;-76
2022/01/04 12:05:25;;;;;;;;;;;;;;;5.71;86.30;99757.91;5014970;28;19928;-76
2022/01/04 12:07:51;;;;;;;;;;;;;;;5.84;87.14;99758.19;5022917;28;19921;-76
2022/01/04 12:10:32;;;;;;;;;;;;;;;5.83;84.17;99742.63;5013831;28;19918;-77
2022/01/04 12:12:57;;;;;;;;;;;;;;;5.91;85.70;99745.75;5019006;28;19917;-76
2022/01/04 12:15:38;;;;;;;;;;;;;;;6.01;83.46;99725.31;5019159;28;19971;-75
2022/01/04 12:18:03;;;;;;;;;;;;;;;6.17;83.06;99728.09;5020331;28;19967;-75
2022/01/04 12:20:44;;;;;;;;;;;;;;;6.28;81.73;99720.63;5007657;28;19949;-77
2022/01/04 12:23:24;;;;;;;;;;;;;;;6.25;81.71;99719.88;5012363;28;19926;-75
2022/01/04 12:26:05;;;;;;;;;;;;;;;6.16;82.40;99731.63;5024741;28;19928;-77
2022/01/04 12:28:31;;;;;;;;;;;;;;;6.25;83.51;99738.16;5013853;28;19929;-77
2022/01/04 12:31:11;;;;;;;;;;;;;;;6.28;83.17;99735.41;5028221;28;19921;-75
2022/01/04 12:33:37;;;;;;;;;;;;;;;6.33;81.44;99723.84;5027314;28;20004;-76
2022/01/04 12:36:02;;;;;;;;;;;;;;;6.40;82.06;99720.91;5021034;28;20430;-72
2022/01/04 12:38:27;;;;;;;;;;;;;;;6.42;82.10;99726.91;5019750;28;19925;-72
2022/01/04 12:40:53;;;;;;;;;;;;;;;6.63;80.02;99709.41;5016995;28;20692;-71
2022/01/04 12:43:18;;;;;;;;;;;;;;;6.47;80.29;99712.72;5020771;28;19932;-72
2022/01/04 12:45:43;;;;;;;;;;;;;;;6.41;80.78;99710.44;5018510;28;19936;-73
2022/01/04 12:48:09;;;;;;;;;;;;;;;6.43;81.13;99715.56;5017713;28;19968;-72
2022/01/04 12:50:34;;;;;;;;;;;;;;;6.23;80.77;99712.16;5021186;28;19921;-73
2022/01/04 12:53:00;;;;;;;;;;;;;;;6.21;79.65;99700.94;5024342;28;19921;-75
2022/01/04 12:55:26;;;;;;;;;;;;;;;6.13;80.60;99710.88;5020076;28;19933;-76
2022/01/04 12:58:06;;;;;;;;;;;;;;;6.14;81.03;99716.03;5027854;28;19940;-76
2022/01/04 13:00:32;;;;;;;;;;;;;;;6.32;79.93;99701.28;5027999;28;19921;-76
2022/01/04 13:02:57;;;;;;;;;;;;;;;6.38;79.92;99696.69;5024932;28;19968;-77